sensor_id;sensor_type;location;lat;lon;timestamp;P1;durP1;ratioP1;P2;durP2;ratioP2
14373;SDS011;7270;49.004;12.066;2023-03-02T00:01:44;1.30;;;1.20;;
14373;SDS011;7270;49.004;12.066;2023-03-02T00:04:13;1.20;;;1.20;;
14373;SDS011;7270;49.004;12.066;2023-03-02T00:06:40;1.40;;;1.30;;
14373;SDS011;7270;49.004;12.066;2023-03-02T00:09:08;1.20;;;1.20;;
14373;SDS011;7270;49.004;12.066;2023-03-02T00:11:35;1.20;;;1.20;;
14373;SDS011;7270;49.004;12.066;2023-03-02T00:14:02;1.13;;;1.13;;
14373;SDS011;7270;49.004;12.066;2023-03-02T00:16:28;1.40;;;1.30;;
14373;SDS011;7270;49.004;12.066;2023-03-02T00:18:54;1.30;;;1.20;;
14373;SDS011;7270;49.004;12.066;2023-03-02T00:21:21;1.30;;;1.20;;
14373;SDS011;7270;49.004;12.066;2023-03-02T00:23:48;1.30;;;1.20;;
14373;SDS011;7270;49.004;12.066;2023-03-02T00:26:16;1.20;;;1.20;;
14373;SDS011;7270;49.004;12.066;2023-03-02T00:28:43;1.40;;;1.30;;
14373;SDS011;7270;49.004;12.066;2023-03-02T00:31:09;1.40;;;1.30;;
14373;SDS011;7270;49.004;12.066;2023-03-02T00:33:36;1.30;;;1.20;;
14373;SDS011;7270;49.004;12.066;2023-03-02T00:36:02;1.43;;;1.33;;
14373;SDS011;7270;49.004;12.066;2023-03-02T00:38:28;1.30;;;1.20;;
14373;SDS011;7270;49.004;12.066;2023-03-02T00:40:55;1.50;;;1.40;;
14373;SDS011;7270;49.004;12.066;2023-03-02T00:43:24;1.40;;;1.30;;
14373;SDS011;7270;49.004;12.066;2023-03-02T00:45:52;1.40;;;1.30;;
14373;SDS011;7270;49.004;12.066;2023-03-02T00:48:18;1.40;;;1.30;;
14373;SDS011;7270;49.004;12.066;2023-03-02T00:50:45;1.40;;;1.30;;
14373;SDS011;7270;49.004;12.066;2023-03-02T00:53:11;1.40;;;1.30;;
14373;SDS011;7270;49.004;12.066;2023-03-02T00:55:37;1.40;;;1.30;;
14373;SDS011;7270;49.004;12.066;2023-03-02T00:58:04;1.50;;;1.40;;
14373;SDS011;7270;49.004;12.066;2023-03-02T01:00:32;1.40;;;1.30;;
14373;SDS011;7270;49.004;12.066;2023-03-02T01:02:59;1.40;;;1.30;;
14373;SDS011;7270;49.004;12.066;2023-03-02T01:05:25;1.40;;;1.30;;
14373;SDS011;7270;49.004;12.066;2023-03-02T01:07:52;1.50;;;1.40;;
14373;SDS011;7270;49.004;12.066;2023-03-02T01:10:18;1.20;;;1.20;;
14373;SDS011;7270;49.004;12.066;2023-03-02T01:12:45;1.40;;;1.30;;
14373;SDS011;7270;49.004;12.066;2023-03-02T01:15:11;1.40;;;1.30;;
14373;SDS011;7270;49.004;12.066;2023-03-02T01:17:39;1.10;;;1.10;;
14373;SDS011;7270;49.004;12.066;2023-03-02T01:20:07;1.40;;;1.30;;
14373;SDS011;7270;49.004;12.066;2023-03-02T01:22:34;1.40;;;1.30;;
14373;SDS011;7270;49.004;12.066;2023-03-02T01:25:01;1.50;;;1.40;;
14373;SDS011;7270;49.004;12.066;2023-03-02T01:27:27;1.40;;;1.30;;
14373;SDS011;7270;49.004;12.066;2023-03-02T01:29:54;1.60;;;1.50;;
14373;SDS011;7270;49.004;12.066;2023-03-02T01:32:20;1.40;;;1.30;;
14373;SDS011;7270;49.004;12.066;2023-03-02T01:34:48;1.20;;;1.20;;
14373;SDS011;7270;49.004;12.066;2023-03-02T01:37:14;1.50;;;1.40;;
14373;SDS011;7270;49.004;12.066;2023-03-02T01:39:40;1.30;;;1.20;;
14373;SDS011;7270;49.004;12.066;2023-03-02T01:42:07;1.40;;;1.30;;
14373;SDS011;7270;49.004;12.066;2023-03-02T01:44:37;1.33;;;1.27;;
14373;SDS011;7270;49.004;12.066;2023-03-02T01:47:05;1.30;;;1.20;;
14373;SDS011;7270;49.004;12.066;2023-03-02T01:49:37;1.37;;;1.27;;
14373;SDS011;7270;49.004;12.066;2023-03-02T01:52:05;1.20;;;1.20;;
14373;SDS011;7270;49.004;12.066;2023-03-02T01:54:33;1.40;;;1.30;;
14373;SDS011;7270;49.004;12.066;2023-03-02T01:57:00;1.30;;;1.20;;
14373;SDS011;7270;49.004;12.066;2023-03-02T01:59:28;1.40;;;1.30;;
14373;SDS011;7270;49.004;12.066;2023-03-02T02:01:57;1.40;;;1.30;;
14373;SDS011;7270;49.004;12.066;2023-03-02T02:04:25;1.13;;;1.13;;
14373;SDS011;7270;49.004;12.066;2023-03-02T02:06:54;1.40;;;1.30;;
14373;SDS011;7270;49.004;12.066;2023-03-02T02:09:22;1.50;;;1.40;;
14373;SDS011;7270;49.004;12.066;2023-03-02T02:11:50;1.40;;;1.30;;
14373;SDS011;7270;49.004;12.066;2023-03-02T02:14:17;1.37;;;1.27;;
14373;SDS011;7270;49.004;12.066;2023-03-02T02:16:43;1.40;;;1.30;;
14373;SDS011;7270;49.004;12.066;2023-03-02T02:19:11;1.50;;;1.40;;
14373;SDS011;7270;49.004;12.066;2023-03-02T02:21:40;1.40;;;1.30;;
14373;SDS011;7270;49.004;12.066;2023-03-02T02:24:07;1.30;;;1.20;;
14373;SDS011;7270;49.004;12.066;2023-03-02T02:26:36;1.30;;;1.20;;
14373;SDS011;7270;49.004;12.066;2023-03-02T02:29:05;1.40;;;1.30;;
14373;SDS011;7270;49.004;12.066;2023-03-02T02:31:36;1.30;;;1.20;;
14373;SDS011;7270;49.004;12.066;2023-03-02T02:34:10;1.40;;;1.30;;
14373;SDS011;7270;49.004;12.066;2023-03-02T02:36:37;1.33;;;1.23;;
14373;SDS011;7270;49.004;12.066;2023-03-02T02:39:06;1.40;;;1.30;;
14373;SDS011;7270;49.004;12.066;2023-03-02T02:41:34;1.40;;;1.30;;
14373;SDS011;7270;49.004;12.066;2023-03-02T02:44:03;1.40;;;1.30;;
14373;SDS011;7270;49.004;12.066;2023-03-02T02:46:29;1.30;;;1.20;;
14373;SDS011;7270;49.004;12.066;2023-03-02T02:48:56;1.33;;;1.23;;
14373;SDS011;7270;49.004;12.066;2023-03-02T02:51:25;1.30;;;1.20;;
14373;SDS011;7270;49.004;12.066;2023-03-02T02:53:52;1.40;;;1.30;;
14373;SDS011;7270;49.004;12.066;2023-03-02T02:56:23;1.50;;;1.40;;
14373;SDS011;7270;49.004;12.066;2023-03-02T02:58:50;1.47;;;1.37;;
14373;SDS011;7270;49.004;12.066;2023-03-02T03:01:19;1.40;;;1.30;;
14373;SDS011;7270;49.004;12.066;2023-03-02T03:03:50;1.50;;;1.40;;
14373;SDS011;7270;49.004;12.066;2023-03-02T03:06:17;1.40;;;1.30;;
14373;SDS011;7270;49.004;12.066;2023-03-02T03:08:55;1.40;;;1.30;;
14373;SDS011;7270;49.004;12.066;2023-03-02T03:11:22;1.20;;;1.20;;
14373;SDS011;7270;49.004;12.066;2023-03-02T03:13:51;1.13;;;1.13;;
14373;SDS011;7270;49.004;12.066;2023-03-02T03:16:19;1.07;;;1.07;;
14373;SDS011;7270;49.004;12.066;2023-03-02T03:18:46;1.00;;;1.00;;
14373;SDS011;7270;49.004;12.066;2023-03-02T03:21:13;1.00;;;1.00;;
14373;SDS011;7270;49.004;12.066;2023-03-02T03:23:42;1.00;;;1.00;;
14373;SDS011;7270;49.004;12.066;2023-03-02T03:26:08;1.10;;;1.10;;
14373;SDS011;7270;49.004;12.066;2023-03-02T03:28:34;1.00;;;1.00;;
14373;SDS011;7270;49.004;12.066;2023-03-02T03:31:01;1.00;;;1.00;;
14373;SDS011;7270;49.004;12.066;2023-03-02T03:33:28;1.20;;;1.20;;
14373;SDS011;7270;49.004;12.066;2023-03-02T03:35:55;1.10;;;1.10;;
14373;SDS011;7270;49.004;12.066;2023-03-02T03:38:21;1.10;;;1.10;;
14373;SDS011;7270;49.004;12.066;2023-03-02T03:40:48;1.20;;;1.20;;
14373;SDS011;7270;49.004;12.066;2023-03-02T03:43:14;1.40;;;1.30;;
14373;SDS011;7270;49.004;12.066;2023-03-02T03:45:40;1.20;;;1.20;;
14373;SDS011;7270;49.004;12.066;2023-03-02T03:48:07;1.40;;;1.30;;
14373;SDS011;7270;49.004;12.066;2023-03-02T03:50:34;1.40;;;1.30;;
14373;SDS011;7270;49.004;12.066;2023-03-02T03:53:01;1.37;;;1.27;;
14373;SDS011;7270;49.004;12.066;2023-03-02T03:55:27;1.40;;;1.30;;
14373;SDS011;7270;49.004;12.066;2023-03-02T03:57:54;1.50;;;1.40;;
14373;SDS011;7270;49.004;12.066;2023-03-02T04:00:20;1.40;;;1.30;;
14373;SDS011;7270;49.004;12.066;2023-03-02T04:02:47;1.47;;;1.37;;
14373;SDS011;7270;49.004;12.066;2023-03-02T04:05:14;1.30;;;1.20;;
14373;SDS011;7270;49.004;12.066;2023-03-02T04:07:42;1.30;;;1.20;;
14373;SDS011;7270;49.004;12.066;2023-03-02T04:10:09;1.30;;;1.20;;
14373;SDS011;7270;49.004;12.066;2023-03-02T04:12:37;1.40;;;1.30;;
14373;SDS011;7270;49.004;12.066;2023-03-02T04:15:04;1.50;;;1.40;;
14373;SDS011;7270;49.004;12.066;2023-03-02T04:17:31;1.40;;;1.30;;
14373;SDS011;7270;49.004;12.066;2023-03-02T04:19:58;1.40;;;1.30;;
14373;SDS011;7270;49.004;12.066;2023-03-02T04:22:24;1.40;;;1.30;;
14373;SDS011;7270;49.004;12.066;2023-03-02T04:24:52;1.40;;;1.30;;
14373;SDS011;7270;49.004;12.066;2023-03-02T04:27:18;1.40;;;1.30;;
14373;SDS011;7270;49.004;12.066;2023-03-02T04:29:45;1.40;;;1.30;;
14373;SDS011;7270;49.004;12.066;2023-03-02T04:32:11;1.30;;;1.20;;
14373;SDS011;7270;49.004;12.066;2023-03-02T04:34:39;1.40;;;1.30;;
14373;SDS011;7270;49.004;12.066;2023-03-02T04:37:05;1.30;;;1.20;;
14373;SDS011;7270;49.004;12.066;2023-03-02T04:39:31;1.40;;;1.30;;
14373;SDS011;7270;49.004;12.066;2023-03-02T04:41:59;1.40;;;1.30;;
14373;SDS011;7270;49.004;12.066;2023-03-02T04:44:25;1.40;;;1.30;;
14373;SDS011;7270;49.004;12.066;2023-03-02T04:46:52;1.40;;;1.30;;
14373;SDS011;7270;49.004;12.066;2023-03-02T04:49:18;1.50;;;1.40;;
14373;SDS011;7270;49.004;12.066;2023-03-02T04:51:45;1.40;;;1.30;;
14373;SDS011;7270;49.004;12.066;2023-03-02T04:54:13;1.40;;;1.30;;
14373;SDS011;7270;49.004;12.066;2023-03-02T04:56:40;1.43;;;1.33;;
14373;SDS011;7270;49.004;12.066;2023-03-02T04:59:07;1.40;;;1.30;;
14373;SDS011;7270;49.004;12.066;2023-03-02T05:01:34;1.40;;;1.30;;
14373;SDS011;7270;49.004;12.066;2023-03-02T05:04:01;1.40;;;1.30;;
14373;SDS011;7270;49.004;12.066;2023-03-02T05:06:28;1.40;;;1.30;;
14373;SDS011;7270;49.004;12.066;2023-03-02T05:08:54;1.40;;;1.30;;
14373;SDS011;7270;49.004;12.066;2023-03-02T05:11:23;1.43;;;1.33;;
14373;SDS011;7270;49.004;12.066;2023-03-02T05:13:50;1.20;;;1.20;;
14373;SDS011;7270;49.004;12.066;2023-03-02T05:16:19;1.30;;;1.30;;
14373;SDS011;7270;49.004;12.066;2023-03-02T05:18:46;1.40;;;1.30;;
14373;SDS011;7270;49.004;12.066;2023-03-02T05:21:13;1.50;;;1.40;;
14373;SDS011;7270;49.004;12.066;2023-03-02T05:23:39;1.50;;;1.40;;
14373;SDS011;7270;49.004;12.066;2023-03-02T05:26:06;1.40;;;1.30;;
14373;SDS011;7270;49.004;12.066;2023-03-02T05:28:33;1.50;;;1.40;;
14373;SDS011;7270;49.004;12.066;2023-03-02T05:30:59;1.40;;;1.30;;
14373;SDS011;7270;49.004;12.066;2023-03-02T05:33:28;1.40;;;1.30;;
14373;SDS011;7270;49.004;12.066;2023-03-02T05:35:54;1.40;;;1.30;;
14373;SDS011;7270;49.004;12.066;2023-03-02T05:38:21;1.40;;;1.30;;
14373;SDS011;7270;49.004;12.066;2023-03-02T05:40:47;1.40;;;1.30;;
14373;SDS011;7270;49.004;12.066;2023-03-02T05:43:17;1.50;;;1.40;;
14373;SDS011;7270;49.004;12.066;2023-03-02T05:45:44;1.20;;;1.20;;
14373;SDS011;7270;49.004;12.066;2023-03-02T05:48:11;1.40;;;1.30;;
14373;SDS011;7270;49.004;12.066;2023-03-02T05:50:41;1.40;;;1.30;;
14373;SDS011;7270;49.004;12.066;2023-03-02T05:53:08;1.50;;;1.40;;
14373;SDS011;7270;49.004;12.066;2023-03-02T05:55:34;1.50;;;1.40;;
14373;SDS011;7270;49.004;12.066;2023-03-02T05:58:01;1.40;;;1.30;;
14373;SDS011;7270;49.004;12.066;2023-03-02T06:00:27;1.43;;;1.33;;
14373;SDS011;7270;49.004;12.066;2023-03-02T06:02:53;1.30;;;1.20;;
14373;SDS011;7270;49.004;12.066;2023-03-02T06:05:20;1.50;;;1.40;;
14373;SDS011;7270;49.004;12.066;2023-03-02T06:07:51;1.50;;;1.40;;
14373;SDS011;7270;49.004;12.066;2023-03-02T06:10:18;1.40;;;1.30;;
14373;SDS011;7270;49.004;12.066;2023-03-02T06:12:45;1.40;;;1.30;;
14373;SDS011;7270;49.004;12.066;2023-03-02T06:15:11;1.40;;;1.30;;
14373;SDS011;7270;49.004;12.066;2023-03-02T06:17:38;1.40;;;1.30;;
14373;SDS011;7270;49.004;12.066;2023-03-02T06:20:05;1.40;;;1.30;;
14373;SDS011;7270;49.004;12.066;2023-03-02T06:22:35;1.40;;;1.30;;
14373;SDS011;7270;49.004;12.066;2023-03-02T06:25:09;1.50;;;1.40;;
14373;SDS011;7270;49.004;12.066;2023-03-02T06:27:36;1.40;;;1.30;;
14373;SDS011;7270;49.004;12.066;2023-03-02T06:30:03;1.47;;;1.37;;
14373;SDS011;7270;49.004;12.066;2023-03-02T06:32:30;1.50;;;1.40;;
14373;SDS011;7270;49.004;12.066;2023-03-02T06:34:58;1.50;;;1.40;;
14373;SDS011;7270;49.004;12.066;2023-03-02T06:37:24;1.50;;;1.40;;
14373;SDS011;7270;49.004;12.066;2023-03-02T06:39:50;1.50;;;1.40;;
14373;SDS011;7270;49.004;12.066;2023-03-02T06:42:18;1.47;;;1.37;;
14373;SDS011;7270;49.004;12.066;2023-03-02T06:44:44;1.40;;;1.30;;
14373;SDS011;7270;49.004;12.066;2023-03-02T06:47:11;1.50;;;1.40;;
14373;SDS011;7270;49.004;12.066;2023-03-02T06:49:37;1.50;;;1.40;;
14373;SDS011;7270;49.004;12.066;2023-03-02T06:52:03;1.50;;;1.40;;
14373;SDS011;7270;49.004;12.066;2023-03-02T06:54:31;1.50;;;1.40;;
14373;SDS011;7270;49.004;12.066;2023-03-02T06:56:57;1.50;;;1.40;;
14373;SDS011;7270;49.004;12.066;2023-03-02T06:59:25;1.40;;;1.30;;
14373;SDS011;7270;49.004;12.066;2023-03-02T07:01:51;1.50;;;1.40;;
14373;SDS011;7270;49.004;12.066;2023-03-02T07:04:17;1.40;;;1.30;;
14373;SDS011;7270;49.004;12.066;2023-03-02T07:06:44;1.40;;;1.30;;
14373;SDS011;7270;49.004;12.066;2023-03-02T07:09:10;1.47;;;1.37;;
14373;SDS011;7270;49.004;12.066;2023-03-02T07:11:37;1.50;;;1.40;;
14373;SDS011;7270;49.004;12.066;2023-03-02T07:14:03;1.40;;;1.30;;
14373;SDS011;7270;49.004;12.066;2023-03-02T07:16:31;1.40;;;1.30;;
14373;SDS011;7270;49.004;12.066;2023-03-02T07:18:58;1.50;;;1.40;;
14373;SDS011;7270;49.004;12.066;2023-03-02T07:21:24;1.50;;;1.40;;
14373;SDS011;7270;49.004;12.066;2023-03-02T07:23:51;1.50;;;1.40;;
14373;SDS011;7270;49.004;12.066;2023-03-02T07:26:17;1.50;;;1.40;;
14373;SDS011;7270;49.004;12.066;2023-03-02T07:28:44;1.50;;;1.40;;
14373;SDS011;7270;49.004;12.066;2023-03-02T07:31:10;1.40;;;1.30;;
14373;SDS011;7270;49.004;12.066;2023-03-02T07:33:38;1.40;;;1.30;;
14373;SDS011;7270;49.004;12.066;2023-03-02T07:36:05;1.50;;;1.40;;
14373;SDS011;7270;49.004;12.066;2023-03-02T07:38:32;1.50;;;1.40;;
14373;SDS011;7270;49.004;12.066;2023-03-02T07:40:58;1.50;;;1.40;;
14373;SDS011;7270;49.004;12.066;2023-03-02T07:43:24;1.40;;;1.30;;
14373;SDS011;7270;49.004;12.066;2023-03-02T07:45:52;1.40;;;1.30;;
14373;SDS011;7270;49.004;12.066;2023-03-02T07:48:19;1.40;;;1.30;;
14373;SDS011;7270;49.004;12.066;2023-03-02T07:50:48;1.40;;;1.30;;
14373;SDS011;7270;49.004;12.066;2023-03-02T07:53:14;1.40;;;1.30;;
14373;SDS011;7270;49.004;12.066;2023-03-02T07:55:41;1.40;;;1.30;;
14373;SDS011;7270;49.004;12.066;2023-03-02T07:58:07;1.40;;;1.30;;
14373;SDS011;7270;49.004;12.066;2023-03-02T08:00:33;1.40;;;1.30;;
14373;SDS011;7270;49.004;12.066;2023-03-02T08:03:00;1.40;;;1.30;;
14373;SDS011;7270;49.004;12.066;2023-03-02T08:05:27;1.50;;;1.40;;
14373;SDS011;7270;49.004;12.066;2023-03-02T08:07:54;1.50;;;1.40;;
14373;SDS011;7270;49.004;12.066;2023-03-02T08:10:21;1.50;;;1.40;;
14373;SDS011;7270;49.004;12.066;2023-03-02T08:12:47;1.40;;;1.30;;
14373;SDS011;7270;49.004;12.066;2023-03-02T08:15:13;1.50;;;1.40;;
14373;SDS011;7270;49.004;12.066;2023-03-02T08:17:39;1.60;;;1.50;;
14373;SDS011;7270;49.004;12.066;2023-03-02T08:20:06;1.50;;;1.40;;
14373;SDS011;7270;49.004;12.066;2023-03-02T08:22:32;1.50;;;1.40;;
14373;SDS011;7270;49.004;12.066;2023-03-02T08:25:00;1.47;;;1.37;;
14373;SDS011;7270;49.004;12.066;2023-03-02T08:27:26;1.40;;;1.30;;
14373;SDS011;7270;49.004;12.066;2023-03-02T08:29:53;1.40;;;1.30;;
14373;SDS011;7270;49.004;12.066;2023-03-02T08:32:19;1.50;;;1.40;;
14373;SDS011;7270;49.004;12.066;2023-03-02T08:34:45;1.20;;;1.20;;
14373;SDS011;7270;49.004;12.066;2023-03-02T08:37:15;1.27;;;1.20;;
14373;SDS011;7270;49.004;12.066;2023-03-02T08:39:41;1.30;;;1.20;;
14373;SDS011;7270;49.004;12.066;2023-03-02T08:42:09;1.40;;;1.30;;
14373;SDS011;7270;49.004;12.066;2023-03-02T08:44:35;1.40;;;1.30;;
14373;SDS011;7270;49.004;12.066;2023-03-02T08:47:01;1.40;;;1.30;;
14373;SDS011;7270;49.004;12.066;2023-03-02T08:49:28;1.30;;;1.20;;
14373;SDS011;7270;49.004;12.066;2023-03-02T08:51:54;1.40;;;1.30;;
14373;SDS011;7270;49.004;12.066;2023-03-02T08:54:22;1.23;;;1.20;;
14373;SDS011;7270;49.004;12.066;2023-03-02T08:56:48;1.30;;;1.20;;
14373;SDS011;7270;49.004;12.066;2023-03-02T08:59:16;1.30;;;1.20;;
14373;SDS011;7270;49.004;12.066;2023-03-02T09:01:42;1.30;;;1.20;;
14373;SDS011;7270;49.004;12.066;2023-03-02T09:04:09;1.30;;;1.20;;
14373;SDS011;7270;49.004;12.066;2023-03-02T09:06:36;1.20;;;1.20;;
14373;SDS011;7270;49.004;12.066;2023-03-02T09:09:03;1.00;;;1.00;;
14373;SDS011;7270;49.004;12.066;2023-03-02T09:11:30;1.00;;;1.00;;
14373;SDS011;7270;49.004;12.066;2023-03-02T09:13:56;0.90;;;0.90;;
14373;SDS011;7270;49.004;12.066;2023-03-02T09:16:24;1.00;;;1.00;;
14373;SDS011;7270;49.004;12.066;2023-03-02T09:18:50;1.10;;;1.10;;
14373;SDS011;7270;49.004;12.066;2023-03-02T09:21:17;1.07;;;1.07;;
14373;SDS011;7270;49.004;12.066;2023-03-02T09:23:44;1.10;;;1.10;;
14373;SDS011;7270;49.004;12.066;2023-03-02T09:26:10;1.10;;;1.10;;
14373;SDS011;7270;49.004;12.066;2023-03-02T09:28:36;1.10;;;1.10;;
14373;SDS011;7270;49.004;12.066;2023-03-02T09:31:04;1.10;;;1.10;;
14373;SDS011;7270;49.004;12.066;2023-03-02T09:33:32;1.00;;;1.00;;
14373;SDS011;7270;49.004;12.066;2023-03-02T09:35:59;1.10;;;1.10;;
14373;SDS011;7270;49.004;12.066;2023-03-02T09:38:26;1.00;;;1.00;;
14373;SDS011;7270;49.004;12.066;2023-03-02T09:41:02;1.10;;;1.10;;
14373;SDS011;7270;49.004;12.066;2023-03-02T09:43:32;1.10;;;1.10;;
14373;SDS011;7270;49.004;12.066;2023-03-02T09:46:08;1.20;;;1.20;;
14373;SDS011;7270;49.004;12.066;2023-03-02T09:48:41;1.10;;;1.10;;
14373;SDS011;7270;49.004;12.066;2023-03-02T09:51:15;1.10;;;1.10;;
14373;SDS011;7270;49.004;12.066;2023-03-02T09:53:45;1.10;;;1.10;;
14373;SDS011;7270;49.004;12.066;2023-03-02T09:56:14;1.13;;;1.13;;
14373;SDS011;7270;49.004;12.066;2023-03-02T09:58:41;1.10;;;1.10;;
14373;SDS011;7270;49.004;12.066;2023-03-02T10:01:12;1.10;;;1.10;;
14373;SDS011;7270;49.004;12.066;2023-03-02T10:03:43;1.10;;;1.10;;
14373;SDS011;7270;49.004;12.066;2023-03-02T10:06:10;1.20;;;1.20;;
14373;SDS011;7270;49.004;12.066;2023-03-02T10:08:37;1.10;;;1.10;;
14373;SDS011;7270;49.004;12.066;2023-03-02T10:11:09;1.20;;;1.20;;
14373;SDS011;7270;49.004;12.066;2023-03-02T10:13:38;1.00;;;1.00;;
14373;SDS011;7270;49.004;12.066;2023-03-02T10:16:10;1.20;;;1.20;;
14373;SDS011;7270;49.004;12.066;2023-03-02T10:18:38;1.20;;;1.20;;
14373;SDS011;7270;49.004;12.066;2023-03-02T10:21:11;1.00;;;1.00;;
14373;SDS011;7270;49.004;12.066;2023-03-02T10:23:41;1.10;;;1.10;;
14373;SDS011;7270;49.004;12.066;2023-03-02T10:26:12;1.20;;;1.20;;
14373;SDS011;7270;49.004;12.066;2023-03-02T10:28:41;1.20;;;1.20;;
14373;SDS011;7270;49.004;12.066;2023-03-02T10:31:11;1.27;;;1.20;;
14373;SDS011;7270;49.004;12.066;2023-03-02T10:33:39;1.00;;;1.00;;
14373;SDS011;7270;49.004;12.066;2023-03-02T10:36:11;1.10;;;1.10;;
14373;SDS011;7270;49.004;12.066;2023-03-02T10:38:41;1.20;;;1.20;;
14373;SDS011;7270;49.004;12.066;2023-03-02T10:41:09;1.27;;;1.20;;
14373;SDS011;7270;49.004;12.066;2023-03-02T10:43:41;1.10;;;1.10;;
14373;SDS011;7270;49.004;12.066;2023-03-02T10:46:09;1.10;;;1.10;;
14373;SDS011;7270;49.004;12.066;2023-03-02T10:48:45;1.10;;;1.10;;
14373;SDS011;7270;49.004;12.066;2023-03-02T10:51:18;1.10;;;1.10;;
14373;SDS011;7270;49.004;12.066;2023-03-02T10:53:47;1.07;;;1.07;;
14373;SDS011;7270;49.004;12.066;2023-03-02T10:56:14;1.10;;;1.10;;
14373;SDS011;7270;49.004;12.066;2023-03-02T10:58:44;1.10;;;1.10;;
14373;SDS011;7270;49.004;12.066;2023-03-02T11:01:14;1.00;;;1.00;;
14373;SDS011;7270;49.004;12.066;2023-03-02T11:03:41;1.10;;;1.10;;
14373;SDS011;7270;49.004;12.066;2023-03-02T11:06:14;1.20;;;1.20;;
14373;SDS011;7270;49.004;12.066;2023-03-02T11:08:41;1.00;;;1.00;;
14373;SDS011;7270;49.004;12.066;2023-03-02T11:11:19;1.10;;;1.10;;
14373;SDS011;7270;49.004;12.066;2023-03-02T11:13:46;1.10;;;1.10;;
14373;SDS011;7270;49.004;12.066;2023-03-02T11:16:20;1.10;;;1.10;;
14373;SDS011;7270;49.004;12.066;2023-03-02T11:18:48;1.10;;;1.10;;
14373;SDS011;7270;49.004;12.066;2023-03-02T11:21:17;1.00;;;1.00;;
14373;SDS011;7270;49.004;12.066;2023-03-02T11:23:48;1.10;;;1.10;;
14373;SDS011;7270;49.004;12.066;2023-03-02T11:26:22;1.10;;;1.10;;
14373;SDS011;7270;49.004;12.066;2023-03-02T11:28:51;1.03;;;1.03;;
14373;SDS011;7270;49.004;12.066;2023-03-02T11:31:21;1.00;;;1.00;;
14373;SDS011;7270;49.004;12.066;2023-03-02T11:36:39;1.10;;;1.10;;
14373;SDS011;7270;49.004;12.066;2023-03-02T11:39:08;1.10;;;1.10;;
14373;SDS011;7270;49.004;12.066;2023-03-02T11:41:38;0.90;;;0.90;;
14373;SDS011;7270;49.004;12.066;2023-03-02T11:44:08;1.00;;;1.00;;
14373;SDS011;7270;49.004;12.066;2023-03-02T11:46:37;1.00;;;1.00;;
14373;SDS011;7270;49.004;12.066;2023-03-02T11:49:04;1.10;;;1.10;;
14373;SDS011;7270;49.004;12.066;2023-03-02T11:51:33;1.10;;;1.10;;
14373;SDS011;7270;49.004;12.066;2023-03-02T11:54:00;0.90;;;0.90;;
14373;SDS011;7270;49.004;12.066;2023-03-02T11:56:28;1.10;;;1.10;;
14373;SDS011;7270;49.004;12.066;2023-03-02T11:58:58;1.10;;;1.10;;
14373;SDS011;7270;49.004;12.066;2023-03-02T12:01:25;1.10;;;1.10;;
14373;SDS011;7270;49.004;12.066;2023-03-02T12:03:52;1.10;;;1.10;;
14373;SDS011;7270;49.004;12.066;2023-03-02T12:06:27;1.00;;;1.00;;
14373;SDS011;7270;49.004;12.066;2023-03-02T12:11:32;1.10;;;1.10;;
14373;SDS011;7270;49.004;12.066;2023-03-02T12:14:02;1.10;;;1.10;;
14373;SDS011;7270;49.004;12.066;2023-03-02T12:16:33;1.10;;;1.10;;
14373;SDS011;7270;49.004;12.066;2023-03-02T12:19:09;1.00;;;1.00;;
14373;SDS011;7270;49.004;12.066;2023-03-02T12:21:37;1.00;;;1.00;;
14373;SDS011;7270;49.004;12.066;2023-03-02T12:24:04;1.00;;;1.00;;
14373;SDS011;7270;49.004;12.066;2023-03-02T12:26:32;1.10;;;1.10;;
14373;SDS011;7270;49.004;12.066;2023-03-02T12:29:02;1.00;;;1.00;;
14373;SDS011;7270;49.004;12.066;2023-03-02T12:31:41;1.10;;;1.10;;
14373;SDS011;7270;49.004;12.066;2023-03-02T12:34:14;1.10;;;1.10;;
14373;SDS011;7270;49.004;12.066;2023-03-02T12:36:47;1.00;;;1.00;;
14373;SDS011;7270;49.004;12.066;2023-03-02T12:39:25;1.00;;;1.00;;
14373;SDS011;7270;49.004;12.066;2023-03-02T12:42:00;1.00;;;1.00;;
14373;SDS011;7270;49.004;12.066;2023-03-02T12:44:38;1.00;;;1.00;;
14373;SDS011;7270;49.004;12.066;2023-03-02T12:47:09;1.10;;;1.10;;
14373;SDS011;7270;49.004;12.066;2023-03-02T12:49:41;1.00;;;1.00;;
14373;SDS011;7270;49.004;12.066;2023-03-02T12:52:17;1.00;;;1.00;;
14373;SDS011;7270;49.004;12.066;2023-03-02T12:54:44;1.10;;;1.10;;
14373;SDS011;7270;49.004;12.066;2023-03-02T12:57:13;1.00;;;1.00;;
14373;SDS011;7270;49.004;12.066;2023-03-02T12:59:41;1.00;;;1.00;;
14373;SDS011;7270;49.004;12.066;2023-03-02T13:02:11;1.00;;;1.00;;
14373;SDS011;7270;49.004;12.066;2023-03-02T13:04:38;1.00;;;1.00;;
14373;SDS011;7270;49.004;12.066;2023-03-02T13:07:05;1.00;;;1.00;;
14373;SDS011;7270;49.004;12.066;2023-03-02T13:09:31;1.10;;;1.10;;
14373;SDS011;7270;49.004;12.066;2023-03-02T13:11:58;1.10;;;1.10;;
14373;SDS011;7270;49.004;12.066;2023-03-02T13:14:25;1.00;;;1.00;;
14373;SDS011;7270;49.004;12.066;2023-03-02T13:16:53;1.00;;;1.00;;
14373;SDS011;7270;49.004;12.066;2023-03-02T13:19:20;1.00;;;1.00;;
14373;SDS011;7270;49.004;12.066;2023-03-02T13:21:47;1.00;;;1.00;;
14373;SDS011;7270;49.004;12.066;2023-03-02T13:24:24;1.10;;;1.10;;
14373;SDS011;7270;49.004;12.066;2023-03-02T13:26:53;1.00;;;1.00;;
14373;SDS011;7270;49.004;12.066;2023-03-02T13:29:19;1.00;;;1.00;;
14373;SDS011;7270;49.004;12.066;2023-03-02T13:31:47;1.10;;;1.10;;
14373;SDS011;7270;49.004;12.066;2023-03-02T13:34:20;1.00;;;1.00;;
14373;SDS011;7270;49.004;12.066;2023-03-02T13:36:47;1.00;;;1.00;;
14373;SDS011;7270;49.004;12.066;2023-03-02T13:39:16;1.00;;;1.00;;
14373;SDS011;7270;49.004;12.066;2023-03-02T13:41:50;1.10;;;1.10;;
14373;SDS011;7270;49.004;12.066;2023-03-02T13:44:18;1.10;;;1.10;;
14373;SDS011;7270;49.004;12.066;2023-03-02T13:46:45;1.10;;;1.10;;
14373;SDS011;7270;49.004;12.066;2023-03-02T13:49:11;1.10;;;1.10;;
14373;SDS011;7270;49.004;12.066;2023-03-02T13:51:40;1.10;;;1.10;;
14373;SDS011;7270;49.004;12.066;2023-03-02T13:54:11;1.10;;;1.10;;
14373;SDS011;7270;49.004;12.066;2023-03-02T13:56:39;1.00;;;1.00;;
14373;SDS011;7270;49.004;12.066;2023-03-02T13:59:08;1.10;;;1.10;;
14373;SDS011;7270;49.004;12.066;2023-03-02T14:01:36;1.10;;;1.10;;
14373;SDS011;7270;49.004;12.066;2023-03-02T14:04:03;1.00;;;1.00;;
14373;SDS011;7270;49.004;12.066;2023-03-02T14:06:29;1.10;;;1.10;;
14373;SDS011;7270;49.004;12.066;2023-03-02T14:08:57;1.10;;;1.10;;
14373;SDS011;7270;49.004;12.066;2023-03-02T14:11:23;1.00;;;1.00;;
14373;SDS011;7270;49.004;12.066;2023-03-02T14:13:50;1.00;;;1.00;;
14373;SDS011;7270;49.004;12.066;2023-03-02T14:16:17;1.00;;;1.00;;
14373;SDS011;7270;49.004;12.066;2023-03-02T14:18:44;1.00;;;1.00;;
14373;SDS011;7270;49.004;12.066;2023-03-02T14:21:10;1.10;;;1.10;;
14373;SDS011;7270;49.004;12.066;2023-03-02T14:23:37;1.10;;;1.10;;
14373;SDS011;7270;49.004;12.066;2023-03-02T14:26:08;1.00;;;1.00;;
14373;SDS011;7270;49.004;12.066;2023-03-02T14:28:40;1.10;;;1.10;;
14373;SDS011;7270;49.004;12.066;2023-03-02T14:31:07;1.10;;;1.10;;
14373;SDS011;7270;49.004;12.066;2023-03-02T14:33:34;1.00;;;1.00;;
14373;SDS011;7270;49.004;12.066;2023-03-02T14:36:00;1.00;;;1.00;;
14373;SDS011;7270;49.004;12.066;2023-03-02T14:38:27;1.10;;;1.10;;
14373;SDS011;7270;49.004;12.066;2023-03-02T14:40:54;1.00;;;1.00;;
14373;SDS011;7270;49.004;12.066;2023-03-02T14:43:22;1.10;;;1.10;;
14373;SDS011;7270;49.004;12.066;2023-03-02T14:45:49;1.00;;;1.00;;
14373;SDS011;7270;49.004;12.066;2023-03-02T14:48:16;1.00;;;1.00;;
14373;SDS011;7270;49.004;12.066;2023-03-02T14:50:43;1.00;;;1.00;;
14373;SDS011;7270;49.004;12.066;2023-03-02T14:53:11;1.10;;;1.10;;
14373;SDS011;7270;49.004;12.066;2023-03-02T14:55:39;1.00;;;1.00;;
14373;SDS011;7270;49.004;12.066;2023-03-02T14:58:09;1.20;;;1.20;;